Warwick, North Dakota
Current Conditions -  °F | °C
As of 1:15 PM on Friday 24 Oct 2014 (Local Time) from KDVL Reporting Station
Clear Clear  
Wind Chill: 66°   Ceiling: Unl
Heat Index: 66°   Visibility: 10mi
Dew Point: 39°   Wind: 23mph
Humidity: 37%   Direction: 290°WNW
Pressure: 29.77"   Gusts: 31mph
Location:  47.86°N, 98.71°W
Report Text: KDVL 241815Z AUTO 29020G27KT 10SM CLR 19/04 A2977 RMK AO1
Loading
Personal Weather Stations






























Interactive Weather Map
Tropical Storm Tracking
New forecast layout! Learn more

10-Day Weather Forecast

Advertisements
Track Severe Weather on mobile